Time;durP1;ratioP1;P1;durP2;ratioP2;P2;SDS_P1;SDS_P2;PMS_P1;PMS_P2;Temp;Humidity;BMP_temperature;BMP_pressure;BME280_temperature;BME280_humidity;BME280_pressure;Samples;Min_cycle;Max_cycle;Signal;HPM_P1;HPM_P2
2022/07/04 00:02:09;;;;;;;11.10;6.00;;;;;;;-147.76;100.00;60361.69;4918129;29;20048;-78
2022/07/04 00:04:37;;;;;;;11.15;7.13;;;;;;;-147.76;100.00;60361.69;4917906;29;20488;-78
2022/07/04 00:07:05;;;;;;;11.02;6.63;;;;;;;-147.76;100.00;60361.69;4918039;29;20511;-78
2022/07/04 00:09:34;;;;;;;10.55;6.15;;;;;;;-147.76;100.00;60361.69;4917883;29;20071;-78
2022/07/04 00:12:01;;;;;;;11.02;6.72;;;;;;;-147.76;100.00;60361.69;4917518;29;20436;-78
2022/07/04 00:14:29;;;;;;;12.65;6.63;;;;;;;-147.76;100.00;60361.69;4918026;29;20052;-78
2022/07/04 00:16:56;;;;;;;13.43;7.32;;;;;;;-147.76;100.00;60361.69;4918065;29;20047;-78
2022/07/04 00:19:24;;;;;;;12.90;7.03;;;;;;;-147.76;100.00;60361.69;4917784;29;20048;-78
2022/07/04 00:21:51;;;;;;;12.50;7.20;;;;;;;-147.76;100.00;60361.69;4923006;29;20067;-78
2022/07/04 00:24:19;;;;;;;11.35;6.90;;;;;;;-147.76;100.00;60361.69;4919498;29;20091;-78
2022/07/04 00:26:48;;;;;;;12.27;7.10;;;;;;;-147.76;100.00;60361.69;4917320;29;20044;-78
2022/07/04 00:29:15;;;;;;;12.98;6.90;;;;;;;-147.76;100.00;60361.69;4916877;29;20048;-78
2022/07/04 00:31:44;;;;;;;10.90;6.63;;;;;;;-147.76;100.00;60361.69;4917619;29;20060;-78
2022/07/04 00:34:11;;;;;;;12.65;7.13;;;;;;;-147.76;100.00;60361.69;4917526;29;20051;-78
2022/07/04 00:36:39;;;;;;;11.23;7.30;;;;;;;-147.76;100.00;60361.69;4917483;29;20044;-78
2022/07/04 00:39:06;;;;;;;11.95;7.38;;;;;;;-147.76;100.00;60361.69;4917294;29;20448;-78
2022/07/04 00:41:34;;;;;;;12.63;7.00;;;;;;;-147.76;100.00;60361.69;4916226;29;20056;-78
2022/07/04 00:44:04;;;;;;;15.43;7.60;;;;;;;-147.76;100.00;60361.69;4917219;29;20048;-78
2022/07/04 00:46:32;;;;;;;14.68;7.72;;;;;;;-147.76;100.00;60361.69;4918243;29;20103;-78
2022/07/04 00:49:00;;;;;;;12.30;6.82;;;;;;;-147.76;100.00;60361.69;4917251;29;20048;-78
2022/07/04 00:51:28;;;;;;;13.20;7.25;;;;;;;-147.76;100.00;60361.69;4917255;29;20135;-78
2022/07/04 00:53:55;;;;;;;12.98;7.25;;;;;;;-147.76;100.00;60361.69;4917302;29;20055;-78
2022/07/04 00:56:23;;;;;;;13.52;8.00;;;;;;;-147.76;100.00;60361.69;4916918;29;20055;-78
2022/07/04 00:58:52;;;;;;;13.65;7.78;;;;;;;-147.76;100.00;60361.69;4917085;29;20048;-78
2022/07/04 01:01:22;;;;;;;13.45;7.00;;;;;;;-147.76;100.00;60361.69;4917103;29;20051;-78
2022/07/04 01:03:50;;;;;;;14.55;7.47;;;;;;;-147.76;100.00;60361.69;4917156;29;20055;-78
2022/07/04 01:06:18;;;;;;;12.27;7.30;;;;;;;-147.76;100.00;60361.69;4917262;29;20135;-78
2022/07/04 01:08:46;;;;;;;18.20;7.28;;;;;;;-147.76;100.00;60361.69;4916789;29;20059;-78
2022/07/04 01:11:14;;;;;;;17.27;7.93;;;;;;;-147.76;100.00;60361.69;4916737;29;20054;-78
2022/07/04 01:13:41;;;;;;;13.82;7.28;;;;;;;-147.76;100.00;60361.69;4917030;29;20075;-78
2022/07/04 01:16:09;;;;;;;16.08;7.95;;;;;;;-147.76;100.00;60361.69;4917047;29;20052;-78
2022/07/04 01:18:39;;;;;;;13.75;7.40;;;;;;;-147.76;100.00;60361.69;4916932;29;20046;-78
2022/07/04 01:21:08;;;;;;;16.65;7.68;;;;;;;-147.76;100.00;60361.69;4916524;29;20111;-78
2022/07/04 01:23:38;;;;;;;13.27;8.00;;;;;;;-147.76;100.00;60361.69;4924210;29;20068;-78
2022/07/04 01:26:06;;;;;;;12.95;8.05;;;;;;;-147.76;100.00;60361.69;4916929;29;20051;-78
2022/07/04 01:28:33;;;;;;;13.88;8.48;;;;;;;-147.76;100.00;60361.69;4917020;29;20051;-78
2022/07/04 01:31:01;;;;;;;16.58;8.48;;;;;;;-147.76;100.00;60361.69;4916876;29;20051;-78
2022/07/04 01:33:28;;;;;;;15.70;8.88;;;;;;;-147.76;100.00;60361.69;4916900;29;20464;-78
2022/07/04 01:35:56;;;;;;;14.82;8.55;;;;;;;-147.76;100.00;60361.69;4915609;29;20111;-78
2022/07/04 01:38:25;;;;;;;14.73;8.38;;;;;;;-147.76;100.00;60361.69;4916905;29;20064;-78
2022/07/04 01:40:52;;;;;;;14.30;8.00;;;;;;;-147.76;100.00;60361.69;4916246;29;20047;-78
2022/07/04 01:43:20;;;;;;;14.05;8.15;;;;;;;-147.76;100.00;60361.69;4916439;29;20048;-78
2022/07/04 01:45:47;;;;;;;17.00;8.30;;;;;;;-147.76;100.00;60361.69;4916901;29;20051;-78
2022/07/04 01:48:15;;;;;;;13.43;8.02;;;;;;;-147.76;100.00;60361.69;4916640;29;20055;-78
2022/07/04 01:50:43;;;;;;;14.23;7.93;;;;;;;-147.76;100.00;60361.69;4916686;29;20431;-78
2022/07/04 01:53:10;;;;;;;14.52;8.00;;;;;;;-147.76;100.00;60361.69;4919425;29;20108;-79
2022/07/04 01:55:39;;;;;;;13.55;8.02;;;;;;;-147.76;100.00;60361.69;4920454;29;20107;-78
2022/07/04 01:58:07;;;;;;;15.38;8.50;;;;;;;-147.76;100.00;60361.69;4920235;29;20052;-78
2022/07/04 02:03:19;;;;;;;12.35;7.68;;;;;;;-147.76;100.00;60361.69;4920913;29;20055;-78
2022/07/04 02:05:47;;;;;;;13.18;7.65;;;;;;;-147.76;100.00;60361.69;4920345;29;20487;-78
2022/07/04 02:08:15;;;;;;;13.10;7.90;;;;;;;-147.76;100.00;60361.69;4919886;29;20055;-78
2022/07/04 02:10:44;;;;;;;13.73;7.72;;;;;;;-147.76;100.00;60361.69;4920196;29;20492;-78
2022/07/04 02:13:11;;;;;;;16.58;8.48;;;;;;;-147.76;100.00;60361.69;4920829;29;20051;-78
2022/07/04 02:15:40;;;;;;;14.77;9.35;;;;;;;-147.76;100.00;60361.69;4920320;29;20059;-78
2022/07/04 02:18:10;;;;;;;15.05;9.35;;;;;;;-147.76;100.00;60361.69;4919862;29;20131;-78
2022/07/04 02:20:39;;;;;;;14.02;8.93;;;;;;;-147.76;100.00;60361.69;4920765;29;20048;-78
2022/07/04 02:23:06;;;;;;;13.70;8.05;;;;;;;-147.76;100.00;60361.69;4926832;29;20048;-78
2022/07/04 02:25:34;;;;;;;12.35;8.25;;;;;;;-147.76;100.00;60361.69;4919759;29;20052;-78
2022/07/04 02:28:03;;;;;;;12.77;7.68;;;;;;;-147.76;100.00;60361.69;4919615;29;20107;-78
2022/07/04 02:30:31;;;;;;;12.68;6.70;;;;;;;-147.76;100.00;60361.69;4919740;29;20036;-78
2022/07/04 02:32:58;;;;;;;11.93;7.00;;;;;;;-147.76;100.00;60361.69;4919658;29;20421;-78
2022/07/04 02:35:26;;;;;;;13.88;8.70;;;;;;;-147.76;100.00;60361.69;4919723;29;20052;-78
2022/07/04 02:37:53;;;;;;;11.95;7.95;;;;;;;-147.76;100.00;60361.69;4919361;29;20488;-78
2022/07/04 02:40:20;;;;;;;19.25;8.77;;;;;;;-147.76;100.00;60361.69;4919288;29;20056;-78
2022/07/04 02:42:48;;;;;;;22.30;8.57;;;;;;;-147.76;100.00;60361.69;4919251;29;20411;-78
2022/07/04 02:45:17;;;;;;;26.23;9.32;;;;;;;-147.76;100.00;60361.69;4919365;29;20416;-78
2022/07/04 02:47:44;;;;;;;28.70;9.80;;;;;;;-147.76;100.00;60361.69;4918766;29;20056;-78
2022/07/04 02:50:12;;;;;;;18.67;9.43;;;;;;;-147.76;100.00;60361.69;4918956;29;20056;-78
2022/07/04 02:52:39;;;;;;;19.17;8.85;;;;;;;-147.76;100.00;60361.69;4918097;29;20048;-78
2022/07/04 02:55:07;;;;;;;18.65;8.13;;;;;;;-147.76;100.00;60361.69;4919169;29;20411;-77
2022/07/04 02:57:37;;;;;;;24.65;8.55;;;;;;;-147.76;100.00;60361.69;4918866;29;20056;-78
2022/07/04 03:00:05;;;;;;;15.95;8.07;;;;;;;-147.76;100.00;60361.69;4918453;29;20054;-78
2022/07/04 03:02:34;;;;;;;17.80;8.18;;;;;;;-147.76;100.00;60361.69;4918653;29;20051;-78
2022/07/04 03:05:02;;;;;;;19.75;8.90;;;;;;;-147.76;100.00;60361.69;4918344;29;20048;-78
2022/07/04 03:07:29;;;;;;;17.83;8.98;;;;;;;-147.76;100.00;60361.69;4918633;29;20052;-78
2022/07/04 03:09:56;;;;;;;17.38;9.02;;;;;;;-147.76;100.00;60361.69;4919071;29;20055;-78
2022/07/04 03:12:24;;;;;;;16.83;8.98;;;;;;;-147.76;100.00;60361.69;4918920;29;20097;-78
2022/07/04 03:14:53;;;;;;;17.80;9.38;;;;;;;-147.76;100.00;60361.69;4919152;29;20056;-78
2022/07/04 03:17:20;;;;;;;17.60;8.68;;;;;;;-147.76;100.00;60361.69;4918788;29;20385;-78
2022/07/04 03:19:49;;;;;;;19.02;10.45;;;;;;;-147.76;100.00;60361.69;4918781;29;20055;-78
2022/07/04 03:22:17;;;;;;;18.67;9.38;;;;;;;-147.76;100.00;60361.69;4925805;29;20558;-78
2022/07/04 03:24:44;;;;;;;17.98;9.48;;;;;;;-147.76;100.00;60361.69;4918708;29;20107;-78
2022/07/04 03:27:12;;;;;;;17.92;9.07;;;;;;;-147.76;100.00;60361.69;4918613;29;20496;-78
2022/07/04 03:29:40;;;;;;;15.00;8.55;;;;;;;-147.76;100.00;60361.69;4918639;29;20137;-78
2022/07/04 03:32:08;;;;;;;18.20;9.63;;;;;;;-147.76;100.00;60361.69;4918464;29;20044;-78
2022/07/04 03:34:35;;;;;;;19.33;9.02;;;;;;;-147.76;100.00;60361.69;4918182;29;20111;-78
2022/07/04 03:37:05;;;;;;;17.27;9.38;;;;;;;-147.76;100.00;60361.69;4918589;29;20051;-78
2022/07/04 03:39:32;;;;;;;17.98;9.32;;;;;;;-147.76;100.00;60361.69;4918344;29;20052;-78
2022/07/04 03:42:00;;;;;;;18.38;8.98;;;;;;;-147.76;100.00;60361.69;4918084;29;20052;-78
2022/07/04 03:44:27;;;;;;;20.85;9.50;;;;;;;-147.76;100.00;60361.69;4918476;29;20048;-78
2022/07/04 03:46:55;;;;;;;20.15;11.43;;;;;;;-147.76;100.00;60361.69;4918274;29;20100;-78
2022/07/04 03:49:22;;;;;;;18.10;9.82;;;;;;;-147.76;100.00;60361.69;4917926;29;20052;-78
2022/07/04 03:51:50;;;;;;;16.35;9.40;;;;;;;-147.76;100.00;60361.69;4919314;29;20056;-78
2022/07/04 03:54:18;;;;;;;16.40;9.68;;;;;;;-147.76;100.00;60361.69;4918280;29;20071;-78
2022/07/04 03:56:46;;;;;;;17.27;9.57;;;;;;;-147.76;100.00;60361.69;4918037;29;20052;-77
2022/07/04 03:59:14;;;;;;;18.45;9.80;;;;;;;-147.76;100.00;60361.69;4917908;29;20044;-78
2022/07/04 04:01:41;;;;;;;16.50;9.85;;;;;;;-147.76;100.00;60361.69;4917993;29;20058;-77
2022/07/04 04:07:08;;;;;;;16.77;9.80;;;;;;;-147.76;100.00;60361.69;4897639;29;20052;-78
2022/07/04 04:09:37;;;;;;;17.00;9.75;;;;;;;-147.76;100.00;60361.69;4897052;29;20179;-77
2022/07/04 04:12:05;;;;;;;17.08;10.05;;;;;;;-147.76;100.00;60361.69;4881022;29;20091;-77
2022/07/04 04:14:33;;;;;;;17.15;10.35;;;;;;;-147.76;100.00;60361.69;4877824;29;20053;-78
2022/07/04 04:17:00;;;;;;;17.08;10.60;;;;;;;-147.76;100.00;60361.69;4878152;29;20053;-78
2022/07/04 04:19:28;;;;;;;15.75;10.63;;;;;;;-147.76;100.00;60361.69;4877755;29;20057;-77
2022/07/04 04:21:55;;;;;;;16.52;10.77;;;;;;;-147.76;100.00;60361.69;4883741;29;20059;-78
2022/07/04 04:24:23;;;;;;;17.70;10.30;;;;;;;-147.76;100.00;60361.69;4862368;29;20068;-78
2022/07/04 04:26:52;;;;;;;16.83;10.65;;;;;;;-147.76;100.00;60361.69;4859694;29;20541;-78
2022/07/04 04:29:19;;;;;;;16.30;9.70;;;;;;;-147.76;100.00;60361.69;4859458;29;20056;-78
2022/07/04 04:31:47;;;;;;;18.77;10.48;;;;;;;-147.76;100.00;60361.69;4859461;29;20066;-77
2022/07/04 04:34:14;;;;;;;19.33;10.88;;;;;;;-147.76;100.00;60361.69;4858983;29;20053;-78
2022/07/04 04:36:42;;;;;;;19.45;11.30;;;;;;;-147.76;100.00;60361.69;4859209;29;20050;-77
2022/07/04 04:39:09;;;;;;;15.95;10.18;;;;;;;-147.76;100.00;60361.69;4903162;29;20060;-76
2022/07/04 04:41:37;;;;;;;15.55;10.13;;;;;;;-147.76;100.00;60361.69;4913869;29;20055;-77
2022/07/04 04:44:06;;;;;;;17.10;10.77;;;;;;;-147.76;100.00;60361.69;4916764;29;20048;-77
2022/07/04 04:46:34;;;;;;;16.45;10.32;;;;;;;-147.76;100.00;60361.69;4913917;29;20055;-77
2022/07/04 04:49:01;;;;;;;16.10;10.10;;;;;;;-147.76;100.00;60361.69;4913757;29;20048;-77
2022/07/04 04:51:29;;;;;;;18.02;11.25;;;;;;;-147.76;100.00;60361.69;4913547;29;20076;-77
2022/07/04 04:53:57;;;;;;;16.27;11.63;;;;;;;-147.76;100.00;60361.69;4913887;29;20780;-77
2022/07/04 04:56:24;;;;;;;16.48;10.35;;;;;;;-147.76;100.00;60361.69;4913956;29;20055;-78
2022/07/04 04:58:51;;;;;;;18.35;10.88;;;;;;;-147.76;100.00;60361.69;4913750;29;20056;-78
2022/07/04 05:01:21;;;;;;;17.27;10.18;;;;;;;-147.76;100.00;60361.69;4913794;29;20563;-77
2022/07/04 05:03:48;;;;;;;19.65;11.02;;;;;;;-147.76;100.00;60361.69;4913120;29;20052;-78
2022/07/04 05:06:15;;;;;;;19.60;10.63;;;;;;;-147.76;100.00;60361.69;4913443;29;20488;-78
2022/07/04 05:08:43;;;;;;;15.38;10.02;;;;;;;-147.76;100.00;60361.69;4913728;29;20056;-78
2022/07/04 05:11:11;;;;;;;17.95;10.68;;;;;;;-147.76;100.00;60361.69;4913899;29;20048;-77
2022/07/04 05:13:38;;;;;;;17.10;10.23;;;;;;;-147.76;100.00;60361.69;4914836;29;20103;-77
2022/07/04 05:16:06;;;;;;;17.00;10.88;;;;;;;-147.76;100.00;60361.69;4918703;29;20079;-78
2022/07/04 05:18:35;;;;;;;16.83;11.50;;;;;;;-147.76;100.00;60361.69;4927298;29;20043;-77
2022/07/04 05:21:03;;;;;;;17.52;11.73;;;;;;;-147.76;100.00;60361.69;4935558;29;20047;-78
2022/07/04 05:23:31;;;;;;;18.15;10.15;;;;;;;-147.76;100.00;60361.69;4924920;29;20047;-78
2022/07/04 05:25:58;;;;;;;15.98;10.18;;;;;;;-147.76;100.00;60361.69;4916988;29;20044;-78
2022/07/04 05:28:25;;;;;;;15.27;9.88;;;;;;;-147.76;100.00;60361.69;4920727;29;20099;-77
2022/07/04 05:30:53;;;;;;;15.32;10.07;;;;;;;-147.76;100.00;60361.69;4920524;29;20395;-77
2022/07/04 05:33:21;;;;;;;14.02;9.38;;;;;;;-147.76;100.00;60361.69;4922457;29;20133;-78
2022/07/04 05:35:50;;;;;;;16.35;10.18;;;;;;;-147.76;100.00;60361.69;4925763;29;20047;-78
2022/07/04 05:38:18;;;;;;;14.38;9.85;;;;;;;-147.76;100.00;60361.69;4928264;29;20044;-77
2022/07/04 05:40:45;;;;;;;16.42;9.88;;;;;;;-147.76;100.00;60361.69;4929744;29;20047;-78
2022/07/04 05:43:12;;;;;;;14.88;9.32;;;;;;;-147.76;100.00;60361.69;4927739;29;20052;-77
2022/07/04 05:45:40;;;;;;;13.05;9.10;;;;;;;-147.76;100.00;60361.69;4925194;29;20064;-78
2022/07/04 05:48:07;;;;;;;12.98;8.27;;;;;;;-147.76;100.00;60361.69;4928572;29;20099;-77
2022/07/04 05:50:35;;;;;;;14.20;8.43;;;;;;;-147.76;100.00;60361.69;4929305;29;20047;-78
2022/07/04 05:53:04;;;;;;;14.60;8.90;;;;;;;-147.76;100.00;60361.69;4930418;29;20047;-78
2022/07/04 05:55:32;;;;;;;12.75;8.30;;;;;;;-147.76;100.00;60361.69;4929155;29;20107;-78
2022/07/04 05:57:59;;;;;;;11.90;7.93;;;;;;;-147.76;100.00;60361.69;4928724;29;20043;-77
2022/07/04 06:00:27;;;;;;;11.32;7.32;;;;;;;-147.76;100.00;60361.69;4924575;29;20504;-78
2022/07/04 06:02:54;;;;;;;11.80;7.72;;;;;;;-147.76;100.00;60361.69;4920294;29;20052;-78
2022/07/04 06:05:21;;;;;;;12.40;7.65;;;;;;;-147.76;100.00;60361.69;4920214;29;20044;-77
2022/07/04 06:07:49;;;;;;;11.23;7.55;;;;;;;-147.76;100.00;60361.69;4920100;29;20492;-78
2022/07/04 06:10:18;;;;;;;13.18;7.60;;;;;;;-147.76;100.00;60361.69;4920016;29;20048;-77
2022/07/04 06:12:45;;;;;;;14.20;9.07;;;;;;;-147.76;100.00;60361.69;4920065;29;20126;-77
2022/07/04 06:15:13;;;;;;;12.50;8.15;;;;;;;-147.76;100.00;60361.69;4919721;29;20416;-77
2022/07/04 06:17:41;;;;;;;11.93;7.45;;;;;;;-147.76;100.00;60361.69;4920083;29;20491;-77
2022/07/04 06:20:09;;;;;;;13.05;7.55;;;;;;;-147.76;100.00;60361.69;4919867;29;20044;-77
2022/07/04 06:22:42;;;;;;;13.07;8.18;;;;;;;-147.76;100.00;60361.69;4927167;29;20040;-77
2022/07/04 06:25:12;;;;;;;16.58;7.93;;;;;;;-147.76;100.00;60361.69;4919759;29;20048;-77
2022/07/04 06:27:41;;;;;;;11.60;7.25;;;;;;;-147.76;100.00;60361.69;4921372;29;20503;-77
2022/07/04 06:30:09;;;;;;;11.50;7.07;;;;;;;-147.76;100.00;60361.69;4918802;29;20040;-78
2022/07/04 06:32:44;;;;;;;14.38;7.95;;;;;;;-147.76;100.00;60361.69;4919244;29;20507;-77
2022/07/04 06:37:57;;;;;;;11.68;7.88;;;;;;;-147.76;100.00;60361.69;4920316;29;20476;-77
2022/07/04 06:40:25;;;;;;;13.23;7.40;;;;;;;-147.76;100.00;60361.69;4919406;29;20040;-77
2022/07/04 06:42:53;;;;;;;12.73;7.35;;;;;;;-147.76;100.00;60361.69;4919406;29;20056;-77
2022/07/04 06:45:21;;;;;;;11.70;7.85;;;;;;;-147.76;100.00;60361.69;4919244;29;20070;-75
2022/07/04 06:47:49;;;;;;;10.95;7.00;;;;;;;-147.76;100.00;60361.69;4919374;29;20059;-79
2022/07/04 06:50:17;;;;;;;12.43;7.32;;;;;;;-147.76;100.00;60361.69;4919240;29;20048;-76
2022/07/04 06:52:45;;;;;;;13.55;6.90;;;;;;;-147.76;100.00;60361.69;4919402;29;20055;-76
2022/07/04 06:55:12;;;;;;;13.13;7.18;;;;;;;-147.76;100.00;60361.69;4919387;29;20099;-76
2022/07/04 06:57:40;;;;;;;12.10;7.18;;;;;;;-147.76;100.00;60361.69;4918917;29;20491;-75
2022/07/04 07:00:10;;;;;;;13.07;7.35;;;;;;;-147.76;100.00;60361.69;4919091;29;20574;-75
2022/07/04 07:02:38;;;;;;;10.63;6.28;;;;;;;-147.76;100.00;60361.69;4919208;29;20087;-75
2022/07/04 07:05:06;;;;;;;11.02;6.60;;;;;;;-147.76;100.00;60361.69;4919284;29;20052;-76
2022/07/04 07:07:34;;;;;;;10.52;6.43;;;;;;;-147.76;100.00;60361.69;4919126;29;20414;-76
2022/07/04 07:10:02;;;;;;;13.75;6.90;;;;;;;-147.76;100.00;60361.69;4919031;29;20055;-75
2022/07/04 07:12:30;;;;;;;12.23;5.95;;;;;;;-147.76;100.00;60361.69;4915685;29;20056;-75
2022/07/04 07:14:57;;;;;;;9.43;5.57;;;;;;;-147.76;100.00;60361.69;4915513;29;20463;-75
2022/07/04 07:17:27;;;;;;;11.43;5.97;;;;;;;-147.76;100.00;60361.69;4914985;29;20048;-75
2022/07/04 07:19:54;;;;;;;10.27;5.57;;;;;;;-147.76;100.00;60361.69;4915360;29;20088;-75
2022/07/04 07:22:22;;;;;;;13.43;6.15;;;;;;;-147.76;100.00;60361.69;4922647;29;20059;-75
2022/07/04 07:24:49;;;;;;;9.05;5.13;;;;;;;-147.76;100.00;60361.69;4915289;29;20063;-75
2022/07/04 07:27:17;;;;;;;10.30;5.38;;;;;;;-147.76;100.00;60361.69;4914831;29;20052;-76
2022/07/04 07:29:44;;;;;;;9.65;5.20;;;;;;;-147.76;100.00;60361.69;4914724;29;20048;-75
2022/07/04 07:32:12;;;;;;;17.50;5.28;;;;;;;-147.76;100.00;60361.69;4915145;29;20055;-76
2022/07/04 07:34:41;;;;;;;13.02;5.72;;;;;;;-147.76;100.00;60361.69;4915196;29;20056;-75
2022/07/04 07:37:08;;;;;;;9.35;5.47;;;;;;;-147.76;100.00;60361.69;4914988;29;20131;-72
2022/07/04 07:39:36;;;;;;;11.00;6.43;;;;;;;-147.76;100.00;60361.69;4914805;29;20056;-72
2022/07/04 07:42:04;;;;;;;10.30;5.95;;;;;;;-147.76;100.00;60361.69;4913475;29;20543;-76
2022/07/04 07:44:32;;;;;;;9.95;6.13;;;;;;;-147.76;100.00;60361.69;4914835;29;20056;-72
2022/07/04 07:46:59;;;;;;;10.27;6.15;;;;;;;-147.76;100.00;60361.69;4914406;29;20052;-73
2022/07/04 07:49:27;;;;;;;10.55;6.18;;;;;;;-147.76;100.00;60361.69;4914006;29;20456;-72
2022/07/04 07:51:56;;;;;;;11.05;6.03;;;;;;;-147.76;100.00;60361.69;4914653;29;20055;-73
2022/07/04 07:54:24;;;;;;;10.27;6.18;;;;;;;-147.76;100.00;60361.69;4914323;29;20063;-72
2022/07/04 07:56:51;;;;;;;13.48;6.28;;;;;;;-147.76;100.00;60361.69;4914345;29;20044;-72
2022/07/04 07:59:19;;;;;;;10.00;5.82;;;;;;;-147.76;100.00;60361.69;4914703;29;20056;-77
2022/07/04 08:01:46;;;;;;;10.43;5.40;;;;;;;-147.76;100.00;60361.69;4914813;29;20254;-75
2022/07/04 08:07:00;;;;;;;11.80;7.07;;;;;;;-147.76;100.00;60361.69;4916053;29;20063;-74
2022/07/04 08:09:28;;;;;;;11.50;6.55;;;;;;;-147.76;100.00;60361.69;4914049;29;20048;-74
2022/07/04 08:11:55;;;;;;;10.70;6.45;;;;;;;-147.76;100.00;60361.69;4913569;29;20055;-74
2022/07/04 08:14:23;;;;;;;10.98;6.28;;;;;;;-147.76;100.00;60361.69;4914443;29;20059;-74
2022/07/04 08:16:50;;;;;;;10.27;6.20;;;;;;;-147.76;100.00;60361.69;4913632;29;20500;-74
2022/07/04 08:19:18;;;;;;;9.65;5.32;;;;;;;-147.76;100.00;60361.69;4914380;29;20122;-74
2022/07/04 08:21:46;;;;;;;8.93;4.90;;;;;;;-147.76;100.00;60361.69;4918561;29;20493;-74
2022/07/04 08:24:15;;;;;;;9.02;5.07;;;;;;;-147.76;100.00;60361.69;4916683;29;20079;-73
2022/07/04 08:26:43;;;;;;;8.68;4.88;;;;;;;-147.76;100.00;60361.69;4912850;29;20059;-72
2022/07/04 08:29:11;;;;;;;10.15;5.22;;;;;;;-147.76;100.00;60361.69;4913677;29;20052;-72
2022/07/04 08:31:38;;;;;;;10.00;5.55;;;;;;;-147.76;100.00;60361.69;4914085;29;20127;-72
2022/07/04 08:34:05;;;;;;;9.15;4.90;;;;;;;-147.76;100.00;60361.69;4914072;29;20111;-72
2022/07/04 08:36:33;;;;;;;8.07;4.90;;;;;;;-147.76;100.00;60361.69;4913913;29;20141;-73
2022/07/04 08:39:00;;;;;;;8.82;5.03;;;;;;;-147.76;100.00;60361.69;4913678;29;20052;-72
2022/07/04 08:41:30;;;;;;;9.05;5.05;;;;;;;-147.76;100.00;60361.69;4913110;29;20052;-72
2022/07/04 08:43:58;;;;;;;9.30;4.80;;;;;;;-147.76;100.00;60361.69;4914087;29;20123;-72
2022/07/04 08:46:27;;;;;;;14.93;5.00;;;;;;;-147.76;100.00;60361.69;4914089;29;20076;-72
2022/07/04 08:48:56;;;;;;;9.43;5.07;;;;;;;-147.76;100.00;60361.69;4913934;29;20054;-72
2022/07/04 08:51:31;;;;;;;9.32;5.07;;;;;;;-147.76;100.00;60361.69;4913760;29;20067;-73
2022/07/04 08:53:58;;;;;;;9.25;4.90;;;;;;;-147.76;100.00;60361.69;4913673;29;20080;-73
2022/07/04 08:59:14;;;;;;;12.73;5.30;;;;;;;-147.76;100.00;60361.69;4913774;29;20482;-72
2022/07/04 09:01:43;;;;;;;7.97;4.75;;;;;;;-147.76;100.00;60361.69;4919225;29;20048;-73
2022/07/04 09:04:11;;;;;;;8.93;5.00;;;;;;;-147.76;100.00;60361.69;4924978;29;20047;-74
2022/07/04 09:06:39;;;;;;;9.32;5.25;;;;;;;-147.76;100.00;60361.69;4926187;29;20130;-73
2022/07/04 09:09:08;;;;;;;10.50;5.07;;;;;;;-147.76;100.00;60361.69;4924641;29;20036;-73
2022/07/04 09:11:35;;;;;;;9.43;5.13;;;;;;;-147.76;100.00;60361.69;4924338;29;20748;-73
2022/07/04 09:14:02;;;;;;;9.50;5.45;;;;;;;-147.76;100.00;60361.69;4924519;29;20091;-74
2022/07/04 09:16:31;;;;;;;10.15;5.35;;;;;;;-147.76;100.00;60361.69;4924993;29;20056;-74
2022/07/04 09:18:59;;;;;;;10.68;5.30;;;;;;;-147.76;100.00;60361.69;4925953;29;20043;-74
2022/07/04 09:21:45;;;;;;;12.43;5.32;;;;;;;-147.76;100.00;60361.69;4925402;29;20139;-74
2022/07/04 09:24:13;;;;;;;11.55;5.80;;;;;;;-147.76;100.00;60361.69;4925062;29;20554;-73
2022/07/04 09:26:42;;;;;;;9.93;5.60;;;;;;;-147.76;100.00;60361.69;4921564;29;20054;-74
2022/07/04 09:29:09;;;;;;;9.88;5.40;;;;;;;-147.76;100.00;60361.69;4925004;29;20123;-73
2022/07/04 09:31:39;;;;;;;10.10;5.72;;;;;;;-147.76;100.00;60361.69;4926011;29;20483;-75
2022/07/04 09:34:07;;;;;;;11.85;6.20;;;;;;;-147.76;100.00;60361.69;4924605;29;20496;-73
2022/07/04 09:36:36;;;;;;;10.57;5.43;;;;;;;-147.76;100.00;60361.69;4924025;29;20055;-73
2022/07/04 09:39:14;;;;;;;9.35;5.13;;;;;;;-147.76;100.00;60361.69;4921908;29;20059;-74
2022/07/04 09:41:55;;;;;;;10.52;5.30;;;;;;;-147.76;100.00;60361.69;4922547;29;20148;-73
2022/07/04 09:44:24;;;;;;;10.98;5.30;;;;;;;-147.76;100.00;60361.69;4924401;29;20549;-74
2022/07/04 09:46:53;;;;;;;9.55;5.28;;;;;;;-147.76;100.00;60361.69;4924356;29;20044;-74
2022/07/04 09:49:21;;;;;;;11.07;4.95;;;;;;;-147.76;100.00;60361.69;4925720;29;20138;-74
2022/07/04 09:51:49;;;;;;;10.95;5.05;;;;;;;-147.76;100.00;60361.69;4924444;29;20422;-74
2022/07/04 09:54:19;;;;;;;8.77;5.30;;;;;;;-147.76;100.00;60361.69;4923714;29;20055;-74
2022/07/04 09:56:48;;;;;;;12.68;5.30;;;;;;;-147.76;100.00;60361.69;4924676;29;20047;-74
2022/07/04 09:59:16;;;;;;;9.25;5.63;;;;;;;-147.76;100.00;60361.69;4925495;29;20047;-74
2022/07/04 10:01:44;;;;;;;10.25;5.50;;;;;;;-147.76;100.00;60361.69;4924095;29;20058;-75
2022/07/04 10:04:14;;;;;;;9.07;5.10;;;;;;;-147.76;100.00;60361.69;4924299;29;20035;-74
2022/07/04 10:06:42;;;;;;;9.48;5.55;;;;;;;-147.76;100.00;60361.69;4921007;29;20104;-74
2022/07/04 10:09:11;;;;;;;10.05;5.65;;;;;;;-147.76;100.00;60361.69;4931802;29;20047;-74
2022/07/04 10:11:39;;;;;;;11.10;5.13;;;;;;;-147.76;100.00;60361.69;4934409;29;20047;-74
2022/07/04 10:14:08;;;;;;;8.68;5.18;;;;;;;-147.76;100.00;60361.69;4937427;29;20443;-74
2022/07/04 10:16:36;;;;;;;10.40;5.30;;;;;;;-147.76;100.00;60361.69;4938054;29;20554;-74
2022/07/04 10:19:04;;;;;;;8.27;5.00;;;;;;;-147.76;100.00;60361.69;4938005;29;20050;-74
2022/07/04 10:21:33;;;;;;;11.02;5.30;;;;;;;-147.76;100.00;60361.69;4927350;29;20071;-73
2022/07/04 10:24:02;;;;;;;9.05;5.20;;;;;;;-147.76;100.00;60361.69;4926956;29;20048;-74
2022/07/04 10:26:35;;;;;;;8.98;4.95;;;;;;;-147.76;100.00;60361.69;4926866;29;20059;-74
2022/07/04 10:29:03;;;;;;;9.18;5.22;;;;;;;-147.76;100.00;60361.69;4929444;29;20048;-73
2022/07/04 10:31:31;;;;;;;9.60;5.35;;;;;;;-147.76;100.00;60361.69;4928807;29;20051;-74
2022/07/04 10:34:00;;;;;;;9.18;5.30;;;;;;;-147.76;100.00;60361.69;4927366;29;20044;-73
2022/07/04 10:36:31;;;;;;;9.80;5.40;;;;;;;-147.76;100.00;60361.69;4926495;29;20047;-74
2022/07/04 10:39:01;;;;;;;9.45;5.38;;;;;;;-147.76;100.00;60361.69;4925159;29;20066;-74
2022/07/04 10:41:30;;;;;;;11.48;5.40;;;;;;;-147.76;100.00;60361.69;4926767;29;20492;-74
2022/07/04 10:44:01;;;;;;;11.30;5.20;;;;;;;-147.76;100.00;60361.69;4924749;29;20040;-74
2022/07/04 10:46:33;;;;;;;8.90;5.05;;;;;;;-147.76;100.00;60361.69;4928053;29;20059;-74
2022/07/04 10:49:02;;;;;;;9.85;5.07;;;;;;;-147.76;100.00;60361.69;4927545;29;20558;-74
2022/07/04 10:51:41;;;;;;;8.70;5.10;;;;;;;-147.76;100.00;60361.69;4928010;29;20522;-74
2022/07/04 10:54:12;;;;;;;8.90;5.00;;;;;;;-147.76;100.00;60361.69;4928564;29;20051;-74
2022/07/04 10:56:45;;;;;;;11.52;5.13;;;;;;;-147.76;100.00;60361.69;4923490;29;20052;-73
2022/07/04 10:59:14;;;;;;;9.07;5.38;;;;;;;-147.76;100.00;60361.69;4923692;29;20046;-73
2022/07/04 11:01:50;;;;;;;9.05;4.90;;;;;;;-147.76;100.00;60361.69;4923515;29;20048;-74
2022/07/04 11:04:35;;;;;;;;;;;;;;;-147.76;100.00;60361.69;4924076;29;20068;-71
2022/07/04 11:07:03;;;;;;;9.02;4.88;;;;;;;-147.76;100.00;60361.69;4915662;29;19934;-72
2022/07/04 11:09:32;;;;;;;9.48;5.28;;;;;;;-147.76;100.00;60361.69;4914856;29;20059;-73
2022/07/04 11:12:01;;;;;;;8.63;4.82;;;;;;;-147.76;100.00;60361.69;4915066;29;20060;-72
2022/07/04 11:14:36;;;;;;;9.27;5.10;;;;;;;-147.76;100.00;60361.69;4915354;29;20058;-74
2022/07/04 11:17:04;;;;;;;9.65;5.15;;;;;;;-147.76;100.00;60361.69;4916451;29;20048;-72
2022/07/04 11:19:31;;;;;;;10.02;5.50;;;;;;;-147.76;100.00;60361.69;4914752;29;20059;-72
2022/07/04 11:21:59;;;;;;;11.02;5.28;;;;;;;-147.76;100.00;60361.69;4921407;29;20047;-72